sensor_id;sensor_type;location;lat;lon;timestamp;P1;P2;P0
69849;PMS5003;57144;39.652;-75.770;2022-10-18T00:02:23;16;14;
69849;PMS5003;57144;39.652;-75.770;2022-10-18T00:04:54;14;14;
69849;PMS5003;57144;39.652;-75.770;2022-10-18T00:07:24;14;9;
69849;PMS5003;57144;39.652;-75.770;2022-10-18T00:09:55;11;11;
69849;PMS5003;57144;39.652;-75.770;2022-10-18T00:12:26;12;9;
69849;PMS5003;57144;39.652;-75.770;2022-10-18T00:14:56;13;12;
69849;PMS5003;57144;39.652;-75.770;2022-10-18T00:17:27;14;11;
69849;PMS5003;57144;39.652;-75.770;2022-10-18T00:19:57;13;12;
69849;PMS5003;57144;39.652;-75.770;2022-10-18T00:22:28;16;11;
69849;PMS5003;57144;39.652;-75.770;2022-10-18T00:24:59;14;11;
69849;PMS5003;57144;39.652;-75.770;2022-10-18T00:27:29;14;11;
69849;PMS5003;57144;39.652;-75.770;2022-10-18T00:30:00;16;13;
69849;PMS5003;57144;39.652;-75.770;2022-10-18T00:32:33;17;14;
69849;PMS5003;57144;39.652;-75.770;2022-10-18T00:35:01;13;11;
69849;PMS5003;57144;39.652;-75.770;2022-10-18T00:37:32;16;14;
69849;PMS5003;57144;39.652;-75.770;2022-10-18T00:40:02;18;15;
69849;PMS5003;57144;39.652;-75.770;2022-10-18T00:42:33;17;13;
69849;PMS5003;57144;39.652;-75.770;2022-10-18T00:45:11;17;13;
69849;PMS5003;57144;39.652;-75.770;2022-10-18T00:47:34;18;12;
69849;PMS5003;57144;39.652;-75.770;2022-10-18T00:50:05;14;12;
69849;PMS5003;57144;39.652;-75.770;2022-10-18T00:52:36;19;15;
69849;PMS5003;57144;39.652;-75.770;2022-10-18T00:55:07;17;17;
69849;PMS5003;57144;39.652;-75.770;2022-10-18T00:57:37;20;17;
69849;PMS5003;57144;39.652;-75.770;2022-10-18T01:00:08;18;17;
69849;PMS5003;57144;39.652;-75.770;2022-10-18T01:02:39;17;14;
69849;PMS5003;57144;39.652;-75.770;2022-10-18T01:05:09;19;16;
69849;PMS5003;57144;39.652;-75.770;2022-10-18T01:07:49;16;14;
69849;PMS5003;57144;39.652;-75.770;2022-10-18T01:10:14;14;13;
69849;PMS5003;57144;39.652;-75.770;2022-10-18T01:12:43;17;15;
69849;PMS5003;57144;39.652;-75.770;2022-10-18T01:15:12;15;10;
69849;PMS5003;57144;39.652;-75.770;2022-10-18T01:17:44;16;15;
69849;PMS5003;57144;39.652;-75.770;2022-10-18T01:20:18;14;12;
69849;PMS5003;57144;39.652;-75.770;2022-10-18T01:22:44;15;11;
69849;PMS5003;57144;39.652;-75.770;2022-10-18T01:27:46;13;10;
69849;PMS5003;57144;39.652;-75.770;2022-10-18T01:32:46;9;9;
69849;PMS5003;57144;39.652;-75.770;2022-10-18T01:35:17;9;9;
69849;PMS5003;57144;39.652;-75.770;2022-10-18T01:37:47;13;11;
69849;PMS5003;57144;39.652;-75.770;2022-10-18T01:40:18;10;10;
69849;PMS5003;57144;39.652;-75.770;2022-10-18T01:42:48;8;8;
69849;PMS5003;57144;39.652;-75.770;2022-10-18T01:45:18;8;8;
69849;PMS5003;57144;39.652;-75.770;2022-10-18T01:47:49;12;11;
69849;PMS5003;57144;39.652;-75.770;2022-10-18T01:52:50;11;9;
69849;PMS5003;57144;39.652;-75.770;2022-10-18T01:55:23;10;9;
69849;PMS5003;57144;39.652;-75.770;2022-10-18T01:57:54;10;8;
69849;PMS5003;57144;39.652;-75.770;2022-10-18T02:00:22;7;7;
69849;PMS5003;57144;39.652;-75.770;2022-10-18T02:02:54;11;11;
69849;PMS5003;57144;39.652;-75.770;2022-10-18T02:05:26;10;8;
69849;PMS5003;57144;39.652;-75.770;2022-10-18T02:07:55;9;8;
69849;PMS5003;57144;39.652;-75.770;2022-10-18T02:10:26;9;9;
69849;PMS5003;57144;39.652;-75.770;2022-10-18T02:12:55;10;8;
69849;PMS5003;57144;39.652;-75.770;2022-10-18T02:15:27;9;9;
69849;PMS5003;57144;39.652;-75.770;2022-10-18T02:17:56;7;7;
69849;PMS5003;57144;39.652;-75.770;2022-10-18T02:20:27;9;9;
69849;PMS5003;57144;39.652;-75.770;2022-10-18T02:22:57;6;6;
69849;PMS5003;57144;39.652;-75.770;2022-10-18T02:25:29;5;5;
69849;PMS5003;57144;39.652;-75.770;2022-10-18T02:27:58;9;8;
69849;PMS5003;57144;39.652;-75.770;2022-10-18T02:30:32;6;6;
69849;PMS5003;57144;39.652;-75.770;2022-10-18T02:33:01;5;5;
69849;PMS5003;57144;39.652;-75.770;2022-10-18T02:35:31;8;7;
69849;PMS5003;57144;39.652;-75.770;2022-10-18T02:38:01;8;7;
69849;PMS5003;57144;39.652;-75.770;2022-10-18T02:40:31;7;7;
69849;PMS5003;57144;39.652;-75.770;2022-10-18T15:57:05;0;0;
69849;PMS5003;57144;39.652;-75.770;2022-10-18T15:59:35;0;0;
69849;PMS5003;57144;39.652;-75.770;2022-10-18T16:02:07;0;0;
69849;PMS5003;57144;39.652;-75.770;2022-10-18T16:04:36;0;0;
69849;PMS5003;57144;39.652;-75.770;2022-10-18T16:07:08;0;0;
69849;PMS5003;57144;39.652;-75.770;2022-10-18T16:09:37;0;0;
69849;PMS5003;57144;39.652;-75.770;2022-10-18T16:12:08;1;0;
69849;PMS5003;57144;39.652;-75.770;2022-10-18T16:14:38;0;0;
69849;PMS5003;57144;39.652;-75.770;2022-10-18T16:17:09;0;0;
69849;PMS5003;57144;39.652;-75.770;2022-10-18T16:19:40;0;0;
69849;PMS5003;57144;39.652;-75.770;2022-10-18T16:22:11;0;0;
69849;PMS5003;57144;39.652;-75.770;2022-10-18T16:24:41;0;0;
69849;PMS5003;57144;39.652;-75.770;2022-10-18T16:27:12;0;0;
69849;PMS5003;57144;39.652;-75.770;2022-10-18T16:29:42;0;0;
69849;PMS5003;57144;39.652;-75.770;2022-10-18T16:32:13;0;0;
69849;PMS5003;57144;39.652;-75.770;2022-10-18T16:34:43;0;0;
69849;PMS5003;57144;39.652;-75.770;2022-10-18T16:37:14;0;0;
69849;PMS5003;57144;39.652;-75.770;2022-10-18T16:39:45;0;0;
69849;PMS5003;57144;39.652;-75.770;2022-10-18T16:42:15;0;0;
69849;PMS5003;57144;39.652;-75.770;2022-10-18T16:44:46;1;1;
69849;PMS5003;57144;39.652;-75.770;2022-10-18T16:47:16;1;0;
69849;PMS5003;57144;39.652;-75.770;2022-10-18T16:49:47;0;0;
69849;PMS5003;57144;39.652;-75.770;2022-10-18T16:52:18;1;0;
69849;PMS5003;57144;39.652;-75.770;2022-10-18T16:54:48;0;0;
69849;PMS5003;57144;39.652;-75.770;2022-10-18T16:57:19;0;0;
69849;PMS5003;57144;39.652;-75.770;2022-10-18T16:59:49;0;0;
69849;PMS5003;57144;39.652;-75.770;2022-10-18T17:02:20;0;0;
69849;PMS5003;57144;39.652;-75.770;2022-10-18T17:04:51;2;1;
69849;PMS5003;57144;39.652;-75.770;2022-10-18T17:07:22;0;0;
69849;PMS5003;57144;39.652;-75.770;2022-10-18T17:09:52;0;0;
69849;PMS5003;57144;39.652;-75.770;2022-10-18T17:12:22;0;0;
69849;PMS5003;57144;39.652;-75.770;2022-10-18T17:14:53;0;0;
69849;PMS5003;57144;39.652;-75.770;2022-10-18T17:17:24;0;0;
69849;PMS5003;57144;39.652;-75.770;2022-10-18T17:19:54;0;0;
69849;PMS5003;57144;39.652;-75.770;2022-10-18T17:22:25;0;0;
69849;PMS5003;57144;39.652;-75.770;2022-10-18T17:24:55;0;0;
69849;PMS5003;57144;39.652;-75.770;2022-10-18T17:27:26;0;0;
69849;PMS5003;57144;39.652;-75.770;2022-10-18T17:29:57;0;0;
69849;PMS5003;57144;39.652;-75.770;2022-10-18T17:32:27;0;0;
69849;PMS5003;57144;39.652;-75.770;2022-10-18T17:34:58;0;0;
69849;PMS5003;57144;39.652;-75.770;2022-10-18T17:37:29;0;0;
69849;PMS5003;57144;39.652;-75.770;2022-10-18T17:39:59;1;0;
69849;PMS5003;57144;39.652;-75.770;2022-10-18T17:42:30;1;0;
69849;PMS5003;57144;39.652;-75.770;2022-10-18T17:45:01;0;0;
69849;PMS5003;57144;39.652;-75.770;2022-10-18T17:47:31;0;0;
69849;PMS5003;57144;39.652;-75.770;2022-10-18T17:50:02;0;0;
69849;PMS5003;57144;39.652;-75.770;2022-10-18T17:52:32;0;0;
69849;PMS5003;57144;39.652;-75.770;2022-10-18T17:55:03;0;0;
69849;PMS5003;57144;39.652;-75.770;2022-10-18T17:57:34;0;0;
69849;PMS5003;57144;39.652;-75.770;2022-10-18T18:00:05;0;0;
69849;PMS5003;57144;39.652;-75.770;2022-10-18T18:02:35;0;0;
69849;PMS5003;57144;39.652;-75.770;2022-10-18T18:05:06;0;0;
69849;PMS5003;57144;39.652;-75.770;2022-10-18T18:07:36;0;0;
69849;PMS5003;57144;39.652;-75.770;2022-10-18T18:10:07;0;0;
69849;PMS5003;57144;39.652;-75.770;2022-10-18T18:12:38;0;0;
69849;PMS5003;57144;39.652;-75.770;2022-10-18T18:15:08;0;0;
69849;PMS5003;57144;39.652;-75.770;2022-10-18T18:17:39;0;0;
69849;PMS5003;57144;39.652;-75.770;2022-10-18T18:20:10;0;0;
69849;PMS5003;57144;39.652;-75.770;2022-10-18T18:22:40;0;0;
69849;PMS5003;57144;39.652;-75.770;2022-10-18T18:25:11;0;0;
69849;PMS5003;57144;39.652;-75.770;2022-10-18T18:27:42;0;0;
69849;PMS5003;57144;39.652;-75.770;2022-10-18T18:30:12;0;0;
69849;PMS5003;57144;39.652;-75.770;2022-10-18T18:32:43;0;0;
69849;PMS5003;57144;39.652;-75.770;2022-10-18T18:35:13;0;0;
69849;PMS5003;57144;39.652;-75.770;2022-10-18T18:37:44;0;0;
69849;PMS5003;57144;39.652;-75.770;2022-10-18T18:40:14;0;0;
69849;PMS5003;57144;39.652;-75.770;2022-10-18T18:42:45;0;0;
69849;PMS5003;57144;39.652;-75.770;2022-10-18T18:45:16;1;0;
69849;PMS5003;57144;39.652;-75.770;2022-10-18T18:47:46;0;0;
69849;PMS5003;57144;39.652;-75.770;2022-10-18T18:50:17;0;0;
69849;PMS5003;57144;39.652;-75.770;2022-10-18T18:52:47;0;0;
69849;PMS5003;57144;39.652;-75.770;2022-10-18T18:55:18;0;0;
69849;PMS5003;57144;39.652;-75.770;2022-10-18T18:57:49;0;0;
69849;PMS5003;57144;39.652;-75.770;2022-10-18T19:00:19;0;0;
69849;PMS5003;57144;39.652;-75.770;2022-10-18T19:02:50;0;0;
69849;PMS5003;57144;39.652;-75.770;2022-10-18T19:05:20;0;0;
69849;PMS5003;57144;39.652;-75.770;2022-10-18T19:07:51;0;0;
69849;PMS5003;57144;39.652;-75.770;2022-10-18T19:10:21;0;0;
69849;PMS5003;57144;39.652;-75.770;2022-10-18T19:12:52;0;0;
69849;PMS5003;57144;39.652;-75.770;2022-10-18T19:15:22;0;0;
69849;PMS5003;57144;39.652;-75.770;2022-10-18T19:17:53;0;0;
69849;PMS5003;57144;39.652;-75.770;2022-10-18T19:20:24;0;0;
69849;PMS5003;57144;39.652;-75.770;2022-10-18T19:22:54;0;0;
69849;PMS5003;57144;39.652;-75.770;2022-10-18T19:25:25;0;0;
69849;PMS5003;57144;39.652;-75.770;2022-10-18T19:27:56;0;0;
69849;PMS5003;57144;39.652;-75.770;2022-10-18T19:30:26;1;0;
69849;PMS5003;57144;39.652;-75.770;2022-10-18T19:32:57;0;0;
69849;PMS5003;57144;39.652;-75.770;2022-10-18T19:35:27;0;0;
69849;PMS5003;57144;39.652;-75.770;2022-10-18T19:37:58;0;0;
69849;PMS5003;57144;39.652;-75.770;2022-10-18T19:40:28;0;0;
69849;PMS5003;57144;39.652;-75.770;2022-10-18T19:42:59;0;0;
69849;PMS5003;57144;39.652;-75.770;2022-10-18T19:45:29;0;0;
69849;PMS5003;57144;39.652;-75.770;2022-10-18T19:48:00;1;0;
69849;PMS5003;57144;39.652;-75.770;2022-10-18T19:50:30;0;0;
69849;PMS5003;57144;39.652;-75.770;2022-10-18T19:53:01;0;0;
69849;PMS5003;57144;39.652;-75.770;2022-10-18T19:55:32;0;0;
69849;PMS5003;57144;39.652;-75.770;2022-10-18T19:58:02;1;0;
69849;PMS5003;57144;39.652;-75.770;2022-10-18T20:00:33;0;0;
69849;PMS5003;57144;39.652;-75.770;2022-10-18T20:03:03;1;0;
69849;PMS5003;57144;39.652;-75.770;2022-10-18T20:05:34;1;0;
69849;PMS5003;57144;39.652;-75.770;2022-10-18T20:08:04;0;0;
69849;PMS5003;57144;39.652;-75.770;2022-10-18T20:10:35;0;0;
69849;PMS5003;57144;39.652;-75.770;2022-10-18T20:13:06;0;0;
69849;PMS5003;57144;39.652;-75.770;2022-10-18T20:15:36;1;0;
69849;PMS5003;57144;39.652;-75.770;2022-10-18T20:18:07;1;1;
69849;PMS5003;57144;39.652;-75.770;2022-10-18T20:20:37;1;1;
69849;PMS5003;57144;39.652;-75.770;2022-10-18T20:23:08;0;0;
69849;PMS5003;57144;39.652;-75.770;2022-10-18T20:25:38;0;0;
69849;PMS5003;57144;39.652;-75.770;2022-10-18T20:28:09;0;0;
69849;PMS5003;57144;39.652;-75.770;2022-10-18T20:30:39;1;1;
69849;PMS5003;57144;39.652;-75.770;2022-10-18T20:33:10;0;0;
69849;PMS5003;57144;39.652;-75.770;2022-10-18T20:35:41;2;0;
69849;PMS5003;57144;39.652;-75.770;2022-10-18T20:38:11;2;1;
69849;PMS5003;57144;39.652;-75.770;2022-10-18T20:40:42;0;0;
69849;PMS5003;57144;39.652;-75.770;2022-10-18T20:43:12;0;0;
69849;PMS5003;57144;39.652;-75.770;2022-10-18T20:45:43;0;0;
69849;PMS5003;57144;39.652;-75.770;2022-10-18T20:48:13;0;0;
69849;PMS5003;57144;39.652;-75.770;2022-10-18T20:50:44;0;0;
69849;PMS5003;57144;39.652;-75.770;2022-10-18T20:53:15;0;0;
69849;PMS5003;57144;39.652;-75.770;2022-10-18T20:55:45;0;0;
69849;PMS5003;57144;39.652;-75.770;2022-10-18T20:58:16;0;0;
69849;PMS5003;57144;39.652;-75.770;2022-10-18T21:00:47;0;0;
69849;PMS5003;57144;39.652;-75.770;2022-10-18T21:03:17;1;1;
69849;PMS5003;57144;39.652;-75.770;2022-10-18T21:05:48;1;1;
69849;PMS5003;57144;39.652;-75.770;2022-10-18T21:08:18;0;0;
69849;PMS5003;57144;39.652;-75.770;2022-10-18T21:10:49;0;0;
69849;PMS5003;57144;39.652;-75.770;2022-10-18T21:13:20;0;0;
69849;PMS5003;57144;39.652;-75.770;2022-10-18T21:15:53;1;0;
69849;PMS5003;57144;39.652;-75.770;2022-10-18T21:18:22;0;0;
69849;PMS5003;57144;39.652;-75.770;2022-10-18T21:20:51;0;0;
69849;PMS5003;57144;39.652;-75.770;2022-10-18T21:23:22;0;0;
69849;PMS5003;57144;39.652;-75.770;2022-10-18T21:25:53;0;0;
69849;PMS5003;57144;39.652;-75.770;2022-10-18T21:28:23;0;0;
69849;PMS5003;57144;39.652;-75.770;2022-10-18T21:30:54;0;0;
69849;PMS5003;57144;39.652;-75.770;2022-10-18T21:33:24;0;0;
69849;PMS5003;57144;39.652;-75.770;2022-10-18T21:35:55;0;0;
69849;PMS5003;57144;39.652;-75.770;2022-10-18T21:38:26;0;0;
69849;PMS5003;57144;39.652;-75.770;2022-10-18T21:40:56;1;1;
69849;PMS5003;57144;39.652;-75.770;2022-10-18T21:43:27;0;0;
69849;PMS5003;57144;39.652;-75.770;2022-10-18T21:45:58;0;0;
69849;PMS5003;57144;39.652;-75.770;2022-10-18T21:48:28;0;0;
69849;PMS5003;57144;39.652;-75.770;2022-10-18T21:51:00;0;0;
69849;PMS5003;57144;39.652;-75.770;2022-10-18T21:53:29;0;0;
69849;PMS5003;57144;39.652;-75.770;2022-10-18T21:56:04;0;0;
69849;PMS5003;57144;39.652;-75.770;2022-10-18T21:58:31;0;0;
69849;PMS5003;57144;39.652;-75.770;2022-10-18T22:01:05;0;0;
69849;PMS5003;57144;39.652;-75.770;2022-10-18T22:03:32;0;0;
69849;PMS5003;57144;39.652;-75.770;2022-10-18T22:06:03;0;0;
69849;PMS5003;57144;39.652;-75.770;2022-10-18T22:08:33;0;0;
69849;PMS5003;57144;39.652;-75.770;2022-10-18T22:11:04;1;1;
69849;PMS5003;57144;39.652;-75.770;2022-10-18T22:13:34;0;0;
69849;PMS5003;57144;39.652;-75.770;2022-10-18T22:16:06;0;0;
69849;PMS5003;57144;39.652;-75.770;2022-10-18T22:18:36;0;0;
69849;PMS5003;57144;39.652;-75.770;2022-10-18T22:21:07;0;0;
69849;PMS5003;57144;39.652;-75.770;2022-10-18T22:23:38;0;0;
69849;PMS5003;57144;39.652;-75.770;2022-10-18T22:26:09;0;0;
69849;PMS5003;57144;39.652;-75.770;2022-10-18T22:28:39;1;0;
69849;PMS5003;57144;39.652;-75.770;2022-10-18T22:31:12;1;0;
69849;PMS5003;57144;39.652;-75.770;2022-10-18T22:36:10;0;0;
69849;PMS5003;57144;39.652;-75.770;2022-10-18T22:38:41;0;0;
69849;PMS5003;57144;39.652;-75.770;2022-10-18T22:41:11;0;0;
69849;PMS5003;57144;39.652;-75.770;2022-10-18T22:43:42;0;0;
69849;PMS5003;57144;39.652;-75.770;2022-10-18T22:46:13;1;1;
69849;PMS5003;57144;39.652;-75.770;2022-10-18T22:48:44;0;0;
69849;PMS5003;57144;39.652;-75.770;2022-10-18T22:51:14;2;0;
69849;PMS5003;57144;39.652;-75.770;2022-10-18T22:53:45;2;1;
69849;PMS5003;57144;39.652;-75.770;2022-10-18T22:56:16;0;0;
69849;PMS5003;57144;39.652;-75.770;2022-10-18T22:58:46;0;0;
69849;PMS5003;57144;39.652;-75.770;2022-10-18T23:01:17;0;0;
69849;PMS5003;57144;39.652;-75.770;2022-10-18T23:03:51;0;0;
69849;PMS5003;57144;39.652;-75.770;2022-10-18T23:06:19;0;0;
69849;PMS5003;57144;39.652;-75.770;2022-10-18T23:08:49;1;0;
69849;PMS5003;57144;39.652;-75.770;2022-10-18T23:11:19;1;0;
69849;PMS5003;57144;39.652;-75.770;2022-10-18T23:13:50;1;0;
69849;PMS5003;57144;39.652;-75.770;2022-10-18T23:16:20;0;0;
69849;PMS5003;57144;39.652;-75.770;2022-10-18T23:18:51;1;0;
69849;PMS5003;57144;39.652;-75.770;2022-10-18T23:21:21;0;0;
69849;PMS5003;57144;39.652;-75.770;2022-10-18T23:23:52;1;1;
69849;PMS5003;57144;39.652;-75.770;2022-10-18T23:26:23;0;0;
69849;PMS5003;57144;39.652;-75.770;2022-10-18T23:28:53;1;0;
69849;PMS5003;57144;39.652;-75.770;2022-10-18T23:31:24;1;0;
69849;PMS5003;57144;39.652;-75.770;2022-10-18T23:33:54;0;0;
69849;PMS5003;57144;39.652;-75.770;2022-10-18T23:36:25;1;1;
69849;PMS5003;57144;39.652;-75.770;2022-10-18T23:38:55;1;0;
69849;PMS5003;57144;39.652;-75.770;2022-10-18T23:41:26;3;2;
69849;PMS5003;57144;39.652;-75.770;2022-10-18T23:43:56;1;1;
69849;PMS5003;57144;39.652;-75.770;2022-10-18T23:46:27;1;1;
69849;PMS5003;57144;39.652;-75.770;2022-10-18T23:48:57;1;1;
69849;PMS5003;57144;39.652;-75.770;2022-10-18T23:51:28;3;2;
69849;PMS5003;57144;39.652;-75.770;2022-10-18T23:53:58;2;2;
69849;PMS5003;57144;39.652;-75.770;2022-10-18T23:56:29;2;1;
69849;PMS5003;57144;39.652;-75.770;2022-10-18T23:59:00;4;4;
